Time;durP1;ratioP1;P1;durP2;ratioP2;P2;SDS_P1;SDS_P2;PMS_P1;PMS_P2;Temp;Humidity;BMP_temperature;BMP_pressure;BME280_temperature;BME280_humidity;BME280_pressure;Samples;Min_cycle;Max_cycle;Signal;HPM_P1;HPM_P2
2022/01/04 00:01:36;;;;;;;5.43;4.87;;;;;;;11.05;94.64;99349.84;5069550;28;20706;-56
2022/01/04 00:04:05;;;;;;;6.03;5.10;;;;;;;11.05;94.64;99349.84;5069258;28;20198;-58
2022/01/04 00:06:32;;;;;;;5.73;4.50;;;;;;;11.02;94.74;99349.94;5069345;28;20204;-59
2022/01/04 00:09:02;;;;;;;6.60;5.33;;;;;;;10.97;95.35;99341.44;5069066;28;20255;-58
2022/01/04 00:11:44;;;;;;;5.97;5.37;;;;;;;10.91;95.28;99343.34;5069885;28;20193;-57
2022/01/04 00:14:12;;;;;;;6.33;5.77;;;;;;;10.89;95.25;99339.97;5073369;28;20195;-56
2022/01/04 00:16:40;;;;;;;6.57;5.90;;;;;;;10.86;95.23;99337.44;5072879;28;20222;-56
2022/01/04 00:19:07;;;;;;;8.43;5.83;;;;;;;10.76;95.52;99336.06;5072921;28;20586;-56
2022/01/04 00:21:34;;;;;;;6.40;5.80;;;;;;;10.74;95.63;99352.56;5072940;28;20199;-56
2022/01/04 00:24:01;;;;;;;7.07;6.30;;;;;;;10.72;96.11;99347.44;5072881;28;20218;-56
2022/01/04 00:26:28;;;;;;;7.40;5.80;;;;;;;10.83;95.42;99350.56;5072939;28;20196;-57
2022/01/04 00:28:55;;;;;;;6.23;5.30;;;;;;;10.95;94.54;99354.47;5072780;28;20203;-57
2022/01/04 00:31:23;;;;;;;6.20;5.60;;;;;;;10.88;94.58;99358.19;5072904;28;20202;-57
2022/01/04 00:33:51;;;;;;;6.03;5.23;;;;;;;10.75;93.99;99320.53;5072797;28;20283;-55
2022/01/04 00:36:18;;;;;;;5.93;5.40;;;;;;;10.88;94.49;99353.84;5072437;28;20219;-57
2022/01/04 00:38:46;;;;;;;5.57;5.07;;;;;;;10.93;94.23;99353.69;5072683;28;20200;-56
2022/01/04 00:41:12;;;;;;;7.03;5.87;;;;;;;10.76;94.14;99330.88;5072454;28;20196;-56
2022/01/04 00:43:39;;;;;;;5.83;5.23;;;;;;;10.78;94.80;99352.44;5072630;28;20196;-55
2022/01/04 00:46:15;;;;;;;6.20;5.27;;;;;;;10.81;94.53;99347.16;5072292;28;20287;-58
2022/01/04 00:51:28;;;;;;;8.17;5.97;;;;;;;10.60;96.25;99357.38;5072489;28;20261;-58
2022/01/04 00:53:55;;;;;;;8.07;5.37;;;;;;;10.77;94.84;99353.34;5072577;28;20604;-58
2022/01/04 00:56:22;;;;;;;6.47;4.67;;;;;;;10.71;95.18;99344.91;5072242;28;20192;-56
2022/01/04 00:58:49;;;;;;;7.00;5.20;;;;;;;10.59;95.98;99340.97;5072232;28;20192;-56
2022/01/04 01:01:15;;;;;;;5.33;4.90;;;;;;;10.62;96.43;99352.97;5072086;28;20188;-56
2022/01/04 01:03:44;;;;;;;5.97;5.20;;;;;;;10.64;96.16;99349.44;5072311;28;20585;-56
2022/01/04 01:06:11;;;;;;;11.13;5.47;;;;;;;10.63;96.25;99339.94;5072375;28;20206;-56
2022/01/04 01:08:38;;;;;;;5.83;5.33;;;;;;;10.53;96.15;99351.50;5072009;28;20291;-57
2022/01/04 01:11:07;;;;;;;5.20;4.70;;;;;;;10.39;96.71;99332.91;5071864;28;20326;-57
2022/01/04 01:13:34;;;;;;;5.37;4.97;;;;;;;10.59;95.63;99346.16;5071955;28;20196;-56
2022/01/04 01:16:01;;;;;;;5.87;4.50;;;;;;;10.58;95.60;99344.44;5071922;28;20567;-57
2022/01/04 01:18:28;;;;;;;5.40;4.90;;;;;;;10.59;95.29;99346.16;5072023;28;20600;-57
2022/01/04 01:20:56;;;;;;;5.47;4.47;;;;;;;10.51;96.10;99342.91;5071971;28;20196;-58
2022/01/04 01:23:23;;;;;;;5.60;5.07;;;;;;;10.41;96.82;99347.56;5070828;28;20282;-56
2022/01/04 01:25:51;;;;;;;5.13;4.53;;;;;;;10.58;95.65;99341.00;5071930;28;20553;-59
2022/01/04 01:28:19;;;;;;;4.43;4.07;;;;;;;10.45;96.42;99350.91;5071633;28;20214;-59
2022/01/04 01:30:46;;;;;;;6.70;4.80;;;;;;;10.61;95.27;99344.31;5071764;28;20230;-59
2022/01/04 01:33:13;;;;;;;5.00;4.60;;;;;;;10.56;95.80;99343.63;5071644;28;20283;-59
2022/01/04 01:35:41;;;;;;;5.53;5.00;;;;;;;10.54;95.53;99337.66;5071558;28;20715;-59
2022/01/04 01:38:10;;;;;;;4.90;4.50;;;;;;;10.44;96.26;99331.03;5071346;28;20218;-59
2022/01/04 01:40:40;;;;;;;5.13;4.63;;;;;;;10.41;96.36;99328.53;5071755;28;20196;-59
2022/01/04 01:43:09;;;;;;;5.00;4.60;;;;;;;10.32;96.41;99302.88;5071410;28;20200;-57
2022/01/04 01:45:37;;;;;;;5.27;4.77;;;;;;;10.44;96.52;99321.53;5071259;28;20196;-55
2022/01/04 01:48:05;;;;;;;5.63;4.93;;;;;;;10.46;96.23;99318.88;5071316;28;20275;-56
2022/01/04 01:50:34;;;;;;;7.20;4.90;;;;;;;10.44;95.82;99311.13;5071026;28;20647;-58
2022/01/04 01:53:01;;;;;;;6.30;4.70;;;;;;;10.47;95.63;99299.81;5071124;28;20195;-57
2022/01/04 01:55:30;;;;;;;4.70;4.30;;;;;;;10.50;95.69;99302.28;5071285;28;20294;-57
2022/01/04 01:57:57;;;;;;;4.73;4.23;;;;;;;10.56;95.28;99309.91;5071251;28;20590;-58
2022/01/04 02:00:27;;;;;;;4.80;4.40;;;;;;;10.53;94.77;99317.78;5071116;28;20287;-57
2022/01/04 02:02:54;;;;;;;4.87;4.47;;;;;;;10.52;94.76;99316.94;5071170;28;20723;-59
2022/01/04 02:05:22;;;;;;;4.73;4.23;;;;;;;10.55;95.10;99328.97;5070728;28;20208;-59
2022/01/04 02:07:49;;;;;;;5.20;4.70;;;;;;;10.48;95.25;99317.94;5070847;28;20208;-57
2022/01/04 02:10:16;;;;;;;5.03;4.63;;;;;;;10.54;94.87;99316.88;5070789;28;20223;-59
2022/01/04 02:12:47;;;;;;;5.43;4.60;;;;;;;10.51;94.95;99325.59;5070771;28;20199;-59
2022/01/04 02:15:16;;;;;;;6.30;4.50;;;;;;;10.47;95.33;99323.19;5070815;28;20223;-59
2022/01/04 02:17:44;;;;;;;4.50;4.10;;;;;;;10.36;95.78;99307.09;5070586;28;20202;-59
2022/01/04 02:20:13;;;;;;;6.37;4.57;;;;;;;10.41;95.74;99320.75;5070837;28;20672;-59
2022/01/04 02:22:40;;;;;;;4.80;4.40;;;;;;;10.17;97.17;99297.25;5070826;28;20670;-59
2022/01/04 02:25:09;;;;;;;5.17;4.63;;;;;;;10.16;97.09;99305.91;5070588;28;20200;-60
2022/01/04 02:27:38;;;;;;;5.50;5.10;;;;;;;10.26;97.30;99340.25;5070556;28;20202;-59
2022/01/04 02:30:07;;;;;;;6.23;5.13;;;;;;;10.18;98.36;99329.25;5070340;28;20583;-56
2022/01/04 02:32:34;;;;;;;5.63;4.73;;;;;;;10.17;97.71;99327.50;5070487;28;20697;-57
2022/01/04 02:35:01;;;;;;;5.80;4.90;;;;;;;10.21;98.65;99328.31;5070174;28;20249;-58
2022/01/04 02:37:31;;;;;;;5.67;5.07;;;;;;;10.05;98.50;99323.53;5070707;28;20199;-58
2022/01/04 02:39:58;;;;;;;7.30;5.20;;;;;;;9.89;98.98;99298.97;5070627;28;20608;-56
2022/01/04 02:42:25;;;;;;;5.30;4.70;;;;;;;9.96;99.84;99318.63;5070446;28;20676;-56
2022/01/04 02:44:52;;;;;;;6.73;5.20;;;;;;;9.87;100.00;99307.69;5070161;28;20681;-56
2022/01/04 02:47:19;;;;;;;7.13;5.80;;;;;;;9.90;100.00;99313.63;5069990;28;20196;-56
2022/01/04 02:49:46;;;;;;;5.47;5.00;;;;;;;9.75;100.00;99319.25;5070272;28;20196;-56
2022/01/04 02:52:13;;;;;;;6.73;5.37;;;;;;;9.53;100.00;99321.59;5070062;28;20192;-56
2022/01/04 02:54:41;;;;;;;6.97;5.63;;;;;;;9.43;100.00;99336.53;5070055;28;20204;-56
2022/01/04 02:57:08;;;;;;;7.80;6.23;;;;;;;9.32;100.00;99335.13;5070136;28;20664;-57
2022/01/04 02:59:35;;;;;;;6.47;5.57;;;;;;;9.17;100.00;99340.69;5069981;28;20195;-57
2022/01/04 03:02:03;;;;;;;8.33;6.07;;;;;;;9.10;100.00;99340.03;5070025;28;20192;-56
2022/01/04 03:04:30;;;;;;;6.30;5.77;;;;;;;9.11;100.00;99352.09;5070024;28;20202;-56
2022/01/04 03:06:57;;;;;;;6.90;6.20;;;;;;;9.19;100.00;99351.88;5070063;28;20238;-57
2022/01/04 03:09:24;;;;;;;8.73;6.40;;;;;;;8.99;100.00;99345.47;5070020;28;20206;-56
2022/01/04 03:11:52;;;;;;;6.50;5.97;;;;;;;8.79;100.00;99352.03;5069872;28;20224;-59
2022/01/04 03:14:19;;;;;;;8.93;6.90;;;;;;;8.77;100.00;99340.88;5069899;28;20196;-56
2022/01/04 03:16:47;;;;;;;8.87;6.37;;;;;;;8.64;100.00;99330.81;5070042;28;20563;-57
2022/01/04 03:19:14;;;;;;;9.57;6.43;;;;;;;8.84;100.00;99330.31;5069705;28;20309;-58
2022/01/04 03:21:44;;;;;;;7.23;6.57;;;;;;;8.66;100.00;99326.47;5069810;28;20196;-58
2022/01/04 03:24:13;;;;;;;7.93;6.40;;;;;;;8.59;100.00;99332.63;5069755;28;20242;-56
2022/01/04 03:26:40;;;;;;;8.53;6.43;;;;;;;8.60;100.00;99324.00;5069730;28;20676;-56
2022/01/04 03:29:10;;;;;;;7.10;6.40;;;;;;;8.50;100.00;99327.69;5070088;28;20420;-56
2022/01/04 03:31:39;;;;;;;8.63;6.40;;;;;;;8.49;100.00;99327.72;5069991;28;20614;-56
2022/01/04 03:34:06;;;;;;;7.03;6.33;;;;;;;8.53;100.00;99312.09;5069757;28;20227;-56
2022/01/04 03:36:33;;;;;;;7.33;6.57;;;;;;;8.54;100.00;99329.34;5069729;28;20339;-56
2022/01/04 03:39:04;;;;;;;8.13;6.13;;;;;;;8.48;100.00;99321.69;5069477;28;20199;-56
2022/01/04 03:41:32;;;;;;;7.80;5.83;;;;;;;8.52;100.00;99330.25;5069701;28;20200;-56
2022/01/04 03:43:59;;;;;;;6.70;6.07;;;;;;;8.60;100.00;99338.66;5069522;28;20200;-58
2022/01/04 03:46:27;;;;;;;6.00;5.40;;;;;;;8.65;100.00;99329.94;5070253;28;20692;-58
2022/01/04 03:48:54;;;;;;;6.73;5.80;;;;;;;8.74;100.00;99332.28;5073550;28;20196;-56
2022/01/04 03:51:21;;;;;;;6.07;5.53;;;;;;;8.77;100.00;99340.88;5073382;28;20711;-57
2022/01/04 03:53:48;;;;;;;9.03;6.17;;;;;;;8.73;100.00;99333.16;5073736;28;20572;-56
2022/01/04 03:56:16;;;;;;;10.10;5.83;;;;;;;8.69;100.00;99335.88;5073580;28;20203;-57
2022/01/04 03:58:43;;;;;;;6.10;5.50;;;;;;;8.74;100.00;99342.63;5073488;28;20691;-56
2022/01/04 04:01:09;;;;;;;5.60;5.10;;;;;;;8.80;100.00;99338.22;5073333;28;20587;-56
2022/01/04 04:03:38;;;;;;;6.77;5.33;;;;;;;8.80;100.00;99340.81;5072885;28;20686;-56
2022/01/04 04:06:05;;;;;;;5.63;5.00;;;;;;;8.87;100.00;99342.34;5069749;28;20727;-58
2022/01/04 04:08:32;;;;;;;7.23;5.90;;;;;;;8.84;100.00;99345.00;5072068;28;20200;-58
2022/01/04 04:10:59;;;;;;;8.93;5.60;;;;;;;8.84;100.00;99337.22;5071575;28;20299;-59
2022/01/04 04:13:26;;;;;;;8.20;5.60;;;;;;;8.96;100.00;99347.28;5072009;28;20191;-59
2022/01/04 04:15:53;;;;;;;10.93;5.20;;;;;;;8.89;100.00;99336.25;5071560;28;20196;-59
2022/01/04 04:18:20;;;;;;;11.90;5.60;;;;;;;8.94;100.00;99341.28;5071512;28;20191;-59
2022/01/04 04:20:48;;;;;;;6.40;5.80;;;;;;;8.96;100.00;99342.09;5071495;28;20187;-59
2022/01/04 04:23:15;;;;;;;7.77;6.03;;;;;;;8.99;100.00;99347.22;5071659;28;20668;-56
2022/01/04 04:25:42;;;;;;;10.37;6.63;;;;;;;9.12;98.99;99346.03;5071868;28;20585;-59
2022/01/04 04:28:10;;;;;;;9.47;6.07;;;;;;;9.23;98.64;99346.59;5069147;28;20192;-59
2022/01/04 04:30:37;;;;;;;6.03;5.43;;;;;;;9.21;98.14;99332.84;5071904;28;20306;-59
2022/01/04 04:33:04;;;;;;;5.70;5.20;;;;;;;9.36;97.40;99341.94;5071599;28;20196;-57
2022/01/04 04:35:31;;;;;;;6.03;5.43;;;;;;;9.23;98.15;99323.28;5071907;28;20290;-59
2022/01/04 04:38:01;;;;;;;5.47;4.73;;;;;;;9.36;98.20;99337.63;5071637;28;20194;-59
2022/01/04 04:40:28;;;;;;;7.50;5.07;;;;;;;9.40;97.75;99351.31;5071754;28;20653;-59
2022/01/04 04:42:55;;;;;;;6.67;5.57;;;;;;;9.34;98.58;99328.19;5071437;28;20282;-57
2022/01/04 04:45:22;;;;;;;6.90;5.43;;;;;;;9.49;99.73;99332.94;5071127;28;20703;-57
2022/01/04 04:47:49;;;;;;;5.47;4.97;;;;;;;9.51;100.00;99343.25;5068315;28;20640;-57
2022/01/04 04:50:16;;;;;;;6.60;5.33;;;;;;;9.51;100.00;99340.66;5070870;28;20192;-57
2022/01/04 04:52:43;;;;;;;20.10;8.00;;;;;;;9.66;100.00;99337.66;5070989;28;20282;-56
2022/01/04 04:55:12;;;;;;;7.00;5.07;;;;;;;9.74;100.00;99343.47;5072585;28;20591;-56
2022/01/04 04:57:40;;;;;;;5.10;4.67;;;;;;;9.73;97.79;99354.72;5072473;28;20203;-56
2022/01/04 05:00:08;;;;;;;6.50;5.03;;;;;;;9.73;96.96;99352.97;5053653;28;20220;-57
2022/01/04 05:02:35;;;;;;;5.47;4.97;;;;;;;9.73;95.79;99346.94;5052030;28;20252;-56
2022/01/04 05:05:03;;;;;;;7.27;4.33;;;;;;;9.68;96.10;99354.03;5063766;28;20224;-59
2022/01/04 05:07:30;;;;;;;5.00;4.50;;;;;;;9.57;96.57;99346.53;5071832;28;20227;-59
2022/01/04 05:09:56;;;;;;;6.33;5.03;;;;;;;9.55;96.39;99347.47;5071611;28;20632;-58
2022/01/04 05:12:25;;;;;;;7.87;5.07;;;;;;;9.48;96.91;99345.94;5071294;28;20238;-58
2022/01/04 05:14:52;;;;;;;4.83;4.37;;;;;;;9.40;97.61;99341.81;5070205;28;20226;-58
2022/01/04 05:17:19;;;;;;;4.67;4.27;;;;;;;9.31;97.50;99338.63;5069765;28;20303;-59
2022/01/04 05:19:46;;;;;;;5.77;4.50;;;;;;;9.37;97.86;99341.88;5071053;28;20277;-60
2022/01/04 05:22:13;;;;;;;5.23;4.50;;;;;;;9.37;97.56;99333.25;5071176;28;20303;-60
2022/01/04 05:24:40;;;;;;;7.43;4.30;;;;;;;9.26;98.61;99330.94;5071332;28;20723;-59
2022/01/04 05:27:08;;;;;;;5.03;4.53;;;;;;;9.17;98.46;99330.34;5071256;28;20224;-60
2022/01/04 05:29:36;;;;;;;12.10;5.23;;;;;;;9.09;98.74;99323.66;5070579;28;20226;-59
2022/01/04 05:32:03;;;;;;;5.33;4.83;;;;;;;9.03;99.11;99330.69;5070885;28;20327;-59
2022/01/04 05:34:30;;;;;;;9.67;4.97;;;;;;;9.08;99.76;99344.38;5070961;28;20303;-57
2022/01/04 05:36:57;;;;;;;6.03;5.40;;;;;;;9.02;99.54;99354.91;5070701;28;20232;-58
2022/01/04 05:39:24;;;;;;;6.53;4.60;;;;;;;9.10;99.64;99353.81;5070904;28;20242;-59
2022/01/04 05:41:51;;;;;;;6.80;5.17;;;;;;;9.06;99.16;99351.34;5070870;28;20302;-59
2022/01/04 05:44:18;;;;;;;6.50;4.93;;;;;;;9.04;99.89;99350.53;5070323;28;20212;-58
2022/01/04 05:46:46;;;;;;;7.07;4.93;;;;;;;9.08;99.51;99350.41;5070898;28;20230;-59
2022/01/04 05:49:13;;;;;;;5.50;4.60;;;;;;;9.01;100.00;99348.88;5070659;28;20303;-59
2022/01/04 05:51:41;;;;;;;8.57;4.43;;;;;;;8.97;100.00;99342.06;5070950;28;20232;-59
2022/01/04 05:54:08;;;;;;;12.03;4.40;;;;;;;8.98;99.96;99341.19;5070411;28;20294;-59
2022/01/04 05:56:35;;;;;;;6.67;5.33;;;;;;;8.98;100.00;99342.94;5070480;28;20226;-59
2022/01/04 05:59:02;;;;;;;7.27;5.33;;;;;;;8.96;99.97;99347.28;5069886;28;20216;-59
2022/01/04 06:01:29;;;;;;;7.03;5.57;;;;;;;8.85;100.00;99350.13;5070838;28;20220;-59
2022/01/04 06:03:57;;;;;;;7.30;5.47;;;;;;;8.85;100.00;99349.28;5070308;28;20778;-59
2022/01/04 06:06:24;;;;;;;7.97;6.40;;;;;;;8.89;100.00;99340.56;5070442;28;20220;-59
2022/01/04 06:08:51;;;;;;;8.07;5.83;;;;;;;9.04;100.00;99345.34;5070076;28;20219;-59
2022/01/04 06:11:43;;;;;;;11.33;5.90;;;;;;;8.96;99.83;99348.13;5069768;28;20231;-59
2022/01/04 06:16:55;;;;;;;10.10;6.83;;;;;;;9.05;99.75;99363.44;5070210;28;20611;-59
2022/01/04 06:19:23;;;;;;;16.83;9.67;;;;;;;9.06;100.00;99359.94;5069854;28;20739;-59
2022/01/04 06:21:50;;;;;;;14.37;9.17;;;;;;;9.09;99.92;99364.22;5070303;28;20215;-58
2022/01/04 06:24:17;;;;;;;12.23;7.40;;;;;;;9.16;99.55;99376.09;5070047;28;20599;-59
2022/01/04 06:26:45;;;;;;;8.63;6.43;;;;;;;9.23;97.69;99369.06;5070258;28;20224;-59
2022/01/04 06:29:12;;;;;;;13.33;6.87;;;;;;;9.34;97.52;99361.84;5069222;28;20304;-59
2022/01/04 06:31:40;;;;;;;17.53;7.43;;;;;;;9.44;96.95;99365.91;5070074;28;20231;-59
2022/01/04 06:34:08;;;;;;;12.67;9.43;;;;;;;9.51;96.83;99367.41;5069237;28;20309;-58
2022/01/04 06:36:36;;;;;;;14.63;10.83;;;;;;;9.57;96.66;99366.41;5069882;28;20232;-58
2022/01/04 06:39:03;;;;;;;13.53;8.80;;;;;;;9.63;95.26;99366.25;5069251;28;20787;-58
2022/01/04 06:41:30;;;;;;;34.87;8.67;;;;;;;9.75;95.00;99356.38;5069838;28;20220;-58
2022/01/04 06:43:57;;;;;;;129.43;13.80;;;;;;;9.76;93.82;99346.88;5068905;28;20270;-59
2022/01/04 06:46:25;;;;;;;14.43;7.70;;;;;;;9.96;93.50;99372.22;5069619;28;20228;-59
2022/01/04 06:48:52;;;;;;;9.67;7.37;;;;;;;10.03;93.06;99378.94;5069861;28;20249;-59
2022/01/04 06:51:19;;;;;;;13.97;7.83;;;;;;;10.13;92.96;99382.97;5069286;28;20224;-59
2022/01/04 06:53:47;;;;;;;14.43;8.87;;;;;;;10.31;92.27;99389.38;5069761;28;20223;-59
2022/01/04 06:56:14;;;;;;;19.93;10.43;;;;;;;10.31;92.60;99373.81;5069469;28;20549;-59
2022/01/04 06:58:41;;;;;;;17.63;11.03;;;;;;;10.44;92.82;99390.72;5069008;28;20638;-58
2022/01/04 07:01:08;;;;;;;22.73;11.87;;;;;;;10.50;92.50;99388.78;5069082;28;20295;-58
2022/01/04 07:03:35;;;;;;;28.33;18.23;;;;;;;10.61;92.33;99404.03;5069400;28;20219;-58
2022/01/04 07:06:02;;;;;;;29.37;18.30;;;;;;;10.72;92.24;99401.13;5069386;28;20230;-58
2022/01/04 07:08:29;;;;;;;27.53;15.23;;;;;;;10.80;91.53;99399.97;5069532;28;20216;-59
2022/01/04 07:10:57;;;;;;;16.77;10.97;;;;;;;10.93;90.20;99402.19;5069079;28;20262;-59
2022/01/04 07:13:24;;;;;;;11.83;9.30;;;;;;;10.90;89.82;99387.53;5068948;28;20250;-59
2022/01/04 07:15:51;;;;;;;21.67;11.20;;;;;;;11.06;89.07;99393.91;5069192;28;20318;-59
2022/01/04 07:18:18;;;;;;;18.07;8.97;;;;;;;11.13;88.66;99394.59;5069302;28;20230;-60
2022/01/04 07:20:45;;;;;;;14.40;9.37;;;;;;;11.16;88.39;99384.09;5068695;28;20212;-59
2022/01/04 07:23:12;;;;;;;14.47;8.83;;;;;;;11.19;87.96;99382.25;5068749;28;20230;-59
2022/01/04 07:25:39;;;;;;;16.37;8.17;;;;;;;11.22;88.02;99374.34;5069174;28;20299;-59
2022/01/04 07:28:08;;;;;;;15.43;8.77;;;;;;;11.30;88.06;99371.47;5068428;28;20230;-59
2022/01/04 07:30:35;;;;;;;15.23;8.27;;;;;;;11.38;87.90;99364.28;5069180;28;20249;-59
2022/01/04 07:33:02;;;;;;;21.90;8.80;;;;;;;11.40;88.56;99361.66;5069049;28;20228;-57
2022/01/04 07:35:29;;;;;;;48.10;11.83;;;;;;;11.51;87.77;99368.13;5068884;28;20268;-59
2022/01/04 07:37:55;;;;;;;43.83;13.20;;;;;;;11.52;87.11;99377.63;5069085;28;20234;-59
2022/01/04 07:40:22;;;;;;;31.03;13.53;;;;;;;11.61;87.57;99376.50;5069018;28;20215;-58
2022/01/04 07:42:49;;;;;;;90.23;15.07;;;;;;;11.69;87.58;99376.22;5068748;28;20672;-58
2022/01/04 07:45:18;;;;;;;19.47;11.13;;;;;;;11.72;85.63;99374.34;5068963;28;20719;-59
2022/01/04 07:47:45;;;;;;;48.43;12.07;;;;;;;11.72;85.31;99378.72;5069293;28;20227;-60
2022/01/04 07:50:13;;;;;;;25.87;11.93;;;;;;;11.77;86.05;99374.22;5068791;28;20598;-60
2022/01/04 07:52:40;;;;;;;20.67;12.30;;;;;;;11.86;86.10;99373.88;5069149;28;20224;-61
2022/01/04 07:55:07;;;;;;;58.87;14.60;;;;;;;11.84;85.31;99373.09;5068637;28;20519;-60
2022/01/04 07:57:35;;;;;;;20.17;10.60;;;;;;;11.89;84.74;99377.22;5068548;28;20212;-61
2022/01/04 08:00:02;;;;;;;27.80;10.93;;;;;;;11.93;87.43;99373.63;5068777;28;20226;-60
2022/01/04 08:02:30;;;;;;;16.80;9.70;;;;;;;11.90;86.59;99371.13;5068825;28;20216;-59
2022/01/04 08:04:57;;;;;;;25.17;10.03;;;;;;;11.89;85.29;99368.56;5068662;28;20224;-59
2022/01/04 08:07:24;;;;;;;24.10;12.20;;;;;;;11.94;85.24;99380.50;5068697;28;20302;-59
2022/01/04 08:09:52;;;;;;;22.07;10.10;;;;;;;12.03;84.70;99388.88;5068763;28;20219;-59
2022/01/04 08:12:19;;;;;;;21.10;10.37;;;;;;;12.08;84.30;99392.13;5068220;28;20630;-60
2022/01/04 08:14:48;;;;;;;19.23;10.27;;;;;;;12.08;84.28;99387.78;5068413;28;20224;-61
2022/01/04 08:17:15;;;;;;;16.60;10.57;;;;;;;12.14;85.56;99384.13;5068587;28;20219;-61
2022/01/04 08:19:43;;;;;;;24.03;13.43;;;;;;;12.17;84.14;99386.63;5068994;28;20715;-61
2022/01/04 08:22:10;;;;;;;30.60;15.80;;;;;;;12.15;84.46;99394.47;5068368;28;20295;-60
2022/01/04 08:24:37;;;;;;;13.50;10.00;;;;;;;12.13;83.89;99403.25;5068647;28;20339;-60
2022/01/04 08:27:05;;;;;;;18.03;10.63;;;;;;;12.12;83.92;99407.59;5067968;28;20216;-60
2022/01/04 08:29:32;;;;;;;16.67;9.80;;;;;;;12.00;83.75;99390.69;5068234;28;20787;-61
2022/01/04 08:31:59;;;;;;;35.03;14.50;;;;;;;12.08;87.29;99397.34;5049633;28;20225;-61
2022/01/04 08:34:26;;;;;;;25.20;15.47;;;;;;;11.88;89.55;99411.09;5058427;28;20612;-60
2022/01/04 08:36:54;;;;;;;36.57;16.33;;;;;;;11.82;90.45;99416.50;5071395;28;20318;-60
2022/01/04 08:39:26;;;;;;;25.63;17.07;;;;;;;11.68;90.80;99406.56;5072895;28;20307;-60
2022/01/04 08:41:55;;;;;;;28.33;16.80;;;;;;;11.76;90.87;99404.56;5071746;28;20685;-59
2022/01/04 08:44:22;;;;;;;26.00;15.03;;;;;;;11.62;91.58;99412.81;5072213;28;20681;-60
2022/01/04 08:46:49;;;;;;;30.77;15.27;;;;;;;11.72;91.22;99415.97;5071990;28;20298;-62
2022/01/04 08:49:16;;;;;;;21.13;14.07;;;;;;;11.58;90.86;99402.59;5071790;28;20270;-60
2022/01/04 08:51:43;;;;;;;30.60;14.23;;;;;;;11.63;91.11;99405.84;5071579;28;20327;-60
2022/01/04 08:54:11;;;;;;;26.80;15.17;;;;;;;11.57;90.26;99399.13;5071905;28;20642;-60
2022/01/04 08:56:39;;;;;;;22.30;14.17;;;;;;;11.46;90.64;99398.66;5071549;28;20222;-59
2022/01/04 08:59:08;;;;;;;28.77;16.00;;;;;;;11.47;91.24;99382.16;5069676;28;20618;-59
2022/01/04 09:01:35;;;;;;;26.77;14.57;;;;;;;11.34;89.89;99351.44;5071191;28;20220;-59
2022/01/04 09:04:02;;;;;;;29.87;16.07;;;;;;;11.47;90.68;99384.75;5071436;28;20792;-59
2022/01/04 09:06:30;;;;;;;22.73;15.60;;;;;;;11.54;90.37;99383.63;5067699;28;20353;-60
2022/01/04 09:08:57;;;;;;;26.80;15.50;;;;;;;11.58;90.11;99387.84;5071748;28;20220;-59
2022/01/04 09:11:26;;;;;;;24.63;15.77;;;;;;;11.56;89.65;99366.25;5070178;28;20216;-61
2022/01/04 09:14:05;;;;;;;26.47;15.73;;;;;;;11.75;89.24;99368.19;5071609;28;20721;-60
2022/01/04 09:19:16;;;;;;;23.47;13.50;;;;;;;11.72;88.07;99363.09;5066882;28;20223;-60
2022/01/04 09:21:43;;;;;;;24.67;14.67;;;;;;;11.69;88.56;99363.22;5051320;28;20311;-60
2022/01/04 09:24:10;;;;;;;19.73;13.37;;;;;;;11.72;88.76;99358.75;5051154;28;20228;-60
2022/01/04 09:26:38;;;;;;;20.30;13.33;;;;;;;11.78;88.58;99358.56;5050709;28;20299;-62
2022/01/04 09:29:06;;;;;;;24.80;13.10;;;;;;;11.83;88.51;99350.59;5051561;28;20227;-60
2022/01/04 09:31:33;;;;;;;30.90;13.23;;;;;;;11.85;88.27;99349.63;5051355;28;20255;-60
2022/01/04 09:34:01;;;;;;;18.90;11.20;;;;;;;11.97;85.84;99348.31;5054679;28;20215;-59
2022/01/04 09:36:30;;;;;;;18.13;11.33;;;;;;;11.98;85.53;99350.00;5071214;28;20692;-60
2022/01/04 09:38:57;;;;;;;14.90;10.03;;;;;;;12.03;85.16;99337.69;5070983;28;20577;-59
2022/01/04 09:41:23;;;;;;;17.50;11.40;;;;;;;12.06;85.26;99335.00;5070424;28;20230;-59
2022/01/04 09:43:53;;;;;;;18.07;11.50;;;;;;;12.10;85.00;99327.91;5070177;28;20629;-60
2022/01/04 09:46:20;;;;;;;14.63;10.10;;;;;;;12.16;84.44;99318.13;5070699;28;20314;-60
2022/01/04 09:48:48;;;;;;;18.23;10.87;;;;;;;12.22;84.20;99314.44;5070878;28;20226;-59
2022/01/04 09:51:16;;;;;;;21.60;10.10;;;;;;;12.30;83.26;99302.00;5070732;28;20622;-59
2022/01/04 09:53:43;;;;;;;17.43;8.67;;;;;;;12.32;82.54;99301.00;5070623;28;20724;-60
2022/01/04 09:56:10;;;;;;;12.30;7.83;;;;;;;12.38;81.39;99301.69;5069989;28;20680;-60
2022/01/04 09:58:37;;;;;;;12.07;7.67;;;;;;;12.42;81.20;99296.28;5070664;28;20224;-60
2022/01/04 10:01:06;;;;;;;14.37;8.33;;;;;;;12.30;81.61;99274.19;5070481;28;20652;-59
2022/01/04 10:03:35;;;;;;;14.83;11.03;;;;;;;12.44;81.56;99281.44;5070414;28;20306;-59
2022/01/04 10:06:05;;;;;;;13.13;8.40;;;;;;;12.43;81.65;99279.75;5070410;28;20310;-59
2022/01/04 10:08:32;;;;;;;9.80;8.40;;;;;;;12.48;80.67;99279.56;5070458;28;20223;-59
2022/01/04 10:11:06;;;;;;;8.73;7.10;;;;;;;12.48;80.82;99272.63;5069692;28;20234;-60
2022/01/04 10:13:33;;;;;;;8.73;6.43;;;;;;;12.66;78.94;99278.81;5070456;28;20297;-59
2022/01/04 10:16:00;;;;;;;9.37;5.97;;;;;;;12.78;77.68;99280.91;5070277;28;20226;-58
2022/01/04 10:18:29;;;;;;;9.30;6.83;;;;;;;12.72;78.00;99274.22;5070387;28;20250;-60
2022/01/04 10:21:13;;;;;;;8.80;6.40;;;;;;;12.71;77.83;99275.13;5070063;28;20215;-60
2022/01/04 10:23:50;;;;;;;13.23;7.23;;;;;;;12.79;77.29;99268.75;5070193;28;20307;-59
2022/01/04 10:26:18;;;;;;;11.33;7.10;;;;;;;12.84;76.78;99257.25;5069478;28;20222;-60
2022/01/04 10:28:47;;;;;;;7.93;6.63;;;;;;;12.91;76.10;99250.84;5070291;28;20707;-60
2022/01/04 10:31:17;;;;;;;7.70;6.70;;;;;;;13.01;75.86;99243.47;5069696;28;20219;-59
2022/01/04 10:33:46;;;;;;;9.90;6.97;;;;;;;13.04;76.29;99233.78;5069518;28;20228;-61
2022/01/04 10:36:13;;;;;;;13.90;7.17;;;;;;;13.13;75.68;99231.69;5069566;28;20250;-62
2022/01/04 10:38:42;;;;;;;11.23;8.67;;;;;;;13.19;75.89;99223.66;5069767;28;20211;-59
2022/01/04 10:41:11;;;;;;;15.37;7.87;;;;;;;13.22;74.49;99223.50;5069113;28;20216;-60
2022/01/04 10:43:41;;;;;;;7.97;7.10;;;;;;;13.25;74.95;99220.75;5069952;28;20779;-60
2022/01/04 10:46:09;;;;;;;8.37;6.70;;;;;;;13.29;73.44;99207.53;5069693;28;20314;-60
2022/01/04 10:48:39;;;;;;;14.50;7.30;;;;;;;13.46;73.51;99206.75;5069902;28;20307;-60
2022/01/04 10:51:11;;;;;;;10.37;7.73;;;;;;;13.51;72.85;99206.56;5069559;28;20310;-60
2022/01/04 10:53:39;;;;;;;10.47;7.10;;;;;;;13.39;72.41;99203.59;5069633;28;20314;-60
2022/01/04 10:56:09;;;;;;;9.30;7.53;;;;;;;13.44;72.90;99203.38;5068072;28;20304;-59
2022/01/04 10:58:38;;;;;;;9.10;6.93;;;;;;;13.57;75.42;99183.63;5068360;28;20231;-59
2022/01/04 11:01:09;;;;;;;15.23;8.23;;;;;;;13.92;72.00;99189.81;5069260;28;20319;-59
2022/01/04 11:03:37;;;;;;;14.10;8.20;;;;;;;13.91;71.74;99192.50;5069352;28;20220;-58
2022/01/04 11:06:12;;;;;;;18.80;9.07;;;;;;;13.89;73.83;99189.09;5069440;28;20223;-57
2022/01/04 11:08:40;;;;;;;14.63;8.97;;;;;;;13.67;72.91;99131.91;5069470;28;20222;-59
2022/01/04 11:11:07;;;;;;;18.73;8.63;;;;;;;13.86;73.19;99178.84;5068781;28;20624;-59
2022/01/04 11:13:34;;;;;;;15.63;9.13;;;;;;;13.86;73.22;99177.09;5069523;28;20579;-59
2022/01/04 11:16:02;;;;;;;16.77;10.27;;;;;;;13.79;73.39;99166.06;5069451;28;20223;-59
2022/01/04 11:18:30;;;;;;;20.17;11.80;;;;;;;13.90;72.91;99181.22;5069464;28;20222;-59
2022/01/04 11:20:58;;;;;;;23.03;12.03;;;;;;;13.91;73.53;99176.84;5069250;28;20604;-62
2022/01/04 11:23:28;;;;;;;19.97;10.27;;;;;;;14.03;73.40;99177.09;5069518;28;20707;-60
2022/01/04 11:25:56;;;;;;;22.27;9.57;;;;;;;14.01;73.45;99178.94;5068736;28;20723;-60
2022/01/04 11:28:24;;;;;;;15.47;7.47;;;;;;;13.95;71.69;99181.84;5069413;28;20713;-62
2022/01/04 11:31:14;;;;;;;10.57;7.43;;;;;;;13.98;72.31;99173.03;5069170;28;20230;-61
2022/01/04 11:33:55;;;;;;;8.80;6.50;;;;;;;14.02;71.82;99153.69;5069071;28;20316;-61
2022/01/04 11:36:24;;;;;;;9.07;6.03;;;;;;;14.13;71.06;99173.13;5068847;28;20335;-61
2022/01/04 11:38:53;;;;;;;7.93;6.37;;;;;;;14.05;72.83;99159.63;5068917;28;20230;-61
2022/01/04 11:41:23;;;;;;;11.53;5.77;;;;;;;14.18;72.01;99154.66;5069169;28;20305;-61